Tiempo atmosférico en la estación meteorológica de Mollerussa, Lleida (250 m.)



Fecha
DESCASC
Temp. máxima en grados centígrados (hora)
DESCASC
Temp. mínima en grados centígrados (hora)
DESCASC
Temp. media en grados centígrados
DESCASC
Racha de viento máxima en m/sg (hora)
DESCASC
Velocidad máxima media en intervalos de 10 minutos(hora)
DESCASC
Precipitaciones diarias en mm
DESCASC
Precipitaciones de 00:00 a 06:00 en mm
DESCASC
Precipitaciones de 06:00 a 12:00 en mm
DESCASC
Precipitaciones de 12:00 a 18:00 en mm
DESCASC
Precipitaciones de 18:00 a 24:00 en mm
DESCASC
18-04-2019 18.9 (16:00) 9.4 (05:20) 14.1 14.44 (23:00) 8.61 (23:00) 0 0 0 0 0
17-04-2019 20.8 (16:10) 6.8 (06:40) 13.8 10 (19:20) 6.11 (19:10) 0 0 0 0 0
16-04-2019 21.3 (17:20) 6.6 (00:00) 13.9 8.89 (19:20) 5.56 (19:10) 0.4 0.4 0 0 0
15-04-2019 19.2 (14:20) 8.5 (00:00) 13.9 10 (19:20) 6.67 (18:00) 0 0 0 0 0
14-04-2019 25 (17:10) 3.8 (00:00) 14.4 11.11 (18:10) 6.11 (18:10) 0 0 0 0 0
13-04-2019 22.2 (17:40) 1.9 (00:00) 12.1 7.78 (16:30) 4.17 (15:40) 0 0 0 0 0
12-04-2019 21 (17:50) 6.2 (00:00) 13.6 9.17 (01:50) 5 (01:50) 0 0 0 0 0
11-04-2019 20.5 (16:10) 5.7 (00:00) 13.1 10 (18:20) 5.56 (18:30) 0 0 0 0 0
10-04-2019 19.1 (16:20) 6.6 (00:00) 12.9 10 (16:40) 4.72 (16:40) 0 0 0 0 0
09-04-2019 19.1 (16:40) 9.2 (00:00) 14.2 11.39 (14:20) 6.39 (14:40) 1.4 0.2 0 0 1.2
08-04-2019 19.6 (17:50) 4.4 (00:00) 12 8.89 (13:50) 4.44 (13:30) 0 0 0 0 0
07-04-2019 17.5 (18:10) 3.8 (00:00) 10.6 10.28 (16:00) 6.11 (14:30) 0 0 0 0 0
06-04-2019 15.5 (19:00) 6.2 (00:00) 10.8 8.89 (20:40) 5 (20:50) 1.4 1.2 0.2 0 0
05-04-2019 14.9 (15:40) 1.4 (00:00) 8.1 7.78 (17:30) 4.72 (18:20) 4.8 0 1 0 3.8
04-04-2019 15.2 (17:40) 1.5 (00:00) 8.3 10.83 (14:10) 5.83 (03:30) 0 0 0 0 0
03-04-2019 13.5 (14:00) 6.3 (00:00) 9.9 8.61 (23:59) 5 (23:30) 0.2 0 0 0.2 0
02-04-2019 19.9 (15:00) 6.1 (00:00) 13 7.78 (16:00) 4.72 (16:20) 0 0 0 0 0
01-04-2019 18.4 (16:50) 9.2 (00:00) 13.8 6.67 (14:00) 3.33 (14:00) 0 0 0 0 0
31-03-2019 16.5 (16:40) 2.6 (00:00) 9.5 5.83 (00:30) 3.61 (14:10) 0 0 0 0 0
30-03-2019 19.1 (15:40) 1.7 (00:00) 10.4 8.06 (18:50) 4.72 (19:00) 0 0 0 0 0
29-03-2019 19.3 (13:30) 2.2 (00:00) 10.7 8.61 (18:30) 5.28 (16:10) 0 0 0 0 0
28-03-2019 19.2 (17:20) 1.9 (00:00) 10.6 7.22 (19:10) 4.72 (19:30) 0 0 0 0 0
27-03-2019 19.3 (17:30) 0.5 (00:00) 9.9 6.67 (13:10) 4.17 (20:30) 0 0 0 0 0
26-03-2019 19.9 (17:10) 1.6 (00:00) 10.7 9.17 (11:40) 5.28 (11:30) 0 0 0 0 0
25-03-2019 21.3 (16:10) 6.4 (00:00) 13.8 9.72 (15:40) 5.83 (17:00) 0 0 0 0 0
24-03-2019 23.4 (17:20) 4 (00:00) 13.7 5.83 (16:20) 3.61 (20:00) 0 0 0 0 0
23-03-2019 22.1 (15:50) 2.4 (00:00) 12.3 5.83 (16:00) 2.78 (15:30) 0 0 0 0 0
22-03-2019 20.4 (16:00) 0.5 (00:00) 10.4 5.28 (21:20) 2.78 (21:30) 0 0 0 0 0
21-03-2019 17.1 (15:50) -0.2 (00:00) 8.5 4.44 (09:50) 2.78 (21:10) 0 0 0 0 0

Gráficas

Temp. máximas Temp. mínimas Temp. medias Precipitaciones Rachas de viento máximas Velocidades máximas media en intervalos de 10 minutos

Datos horarios

Fecha y hora oficial Temperatura (ºC) Velocidad del viento (km/h) Dirección del viento Racha (km/h) Dirección de racha Precipitación (mm) Presión (hPa) Tendencia (hPa) Humedad (%)
2019-04-19 23:00:00 16.3 12 Este 29 Este 0 -- -- 46
2019-04-19 22:00:00 17 10 Este 29 Este 0 -- -- 45
2019-04-19 21:00:00 17.2 9 Este 25 Este 0 -- -- 38
2019-04-19 20:00:00 19 18 Este 45 Este 0 -- -- 33
2019-04-19 19:00:00 20.4 22 Este 42 Este 0 -- -- 32
2019-04-19 18:00:00 21.7 19 Este 37 Este 0 -- -- 35
2019-04-19 17:00:00 22.1 17 Este 41 Sudeste 0 -- -- 38
2019-04-19 16:00:00 21.3 18 Este 42 Este 0 -- -- 38
2019-04-19 15:00:00 20.9 22 Este 44 Este 0 -- -- 42
2019-04-19 14:00:00 19 27 Este 49 Este 0 -- -- 48
2019-04-19 13:00:00 18.2 29 Este 46 Este 0 -- -- 51
2019-04-19 12:00:00 17.4 19 Este 41 Sudeste 0 -- -- 53
2019-04-19 11:00:00 16.8 19 Este 40 Este 0 -- -- 52
2019-04-19 10:00:00 15.7 17 Este 27 Este 0 -- -- 58
2019-04-19 09:00:00 14.4 13 Este 30 Este 0 -- -- 59
2019-04-19 08:00:00 13.2 9 Este 27 Este 0 -- -- 61
2019-04-19 07:00:00 13.6 12 Este 30 Este 0 -- -- 59
2019-04-19 06:00:00 13.9 17 Este 31 Este 0 -- -- 57
2019-04-19 05:00:00 13.9 13 Este 27 Este 0 -- -- 58
2019-04-19 04:00:00 13.9 12 Este 32 Este 0 -- -- 57
2019-04-19 03:00:00 14.3 18 Este 30 Este 0 -- -- 55
2019-04-19 02:00:00 14.7 9 Este 41 Sudeste 0 -- -- 55
2019-04-19 01:00:00 15.3 17 Este 32 Sudeste 0 -- -- 54
2019-04-19 00:00:00 15.1 17 Este 41 Este 0 -- -- 54
2019-04-18 23:00:00 15.5 31 Este 52 Este 0 -- -- 55
2019-04-18 22:00:00 15.8 20 Este 34 Este 0 -- -- 50
2019-04-18 21:00:00 16.4 10 Este 35 Este 0 -- -- 53
2019-04-18 20:00:00 17 19 Sudeste 35 Sudeste 0 -- -- 52
2019-04-18 19:00:00 17.4 21 Sudeste 41 Este 0 -- -- 54
2019-04-18 18:00:00 18.1 21 Este 45 Este 0 -- -- 51
2019-04-18 17:00:00 18.5 20 Sudeste 47 Este 0 -- -- 48
2019-04-18 16:00:00 18.9 19 Este 39 Este 0 -- -- 45
2019-04-18 15:00:00 17.9 20 Este 45 Este 0 -- -- 49
2019-04-18 14:00:00 17.2 18 Este 34 Este 0 -- -- 52
2019-04-18 13:00:00 15.5 12 Este 33 Este 0 -- -- 62
2019-04-18 12:00:00 14.7 15 Este 37 Este 0 -- -- 58
2019-04-18 11:00:00 13.9 13 Este 28 Este 0 -- -- 63
2019-04-18 10:00:00 13.5 8 Este 15 Este 0 -- -- 69
2019-04-18 09:00:00 11.3 5 Sudeste 12 Sudeste 0 -- -- 86
2019-04-18 08:00:00 9.9 5 Sudeste 11 Este 0 -- -- 89
2019-04-18 07:00:00 10.1 6 Este 19 Nordeste 0 -- -- 88
2019-04-18 06:00:00 9.9 8 Este 17 Este 0 -- -- 87
2019-04-18 05:00:00 9.7 7 Sudeste 19 Este 0 -- -- 86
2019-04-18 04:00:00 10.3 6 Sudeste 14 Sudeste 0 -- -- 85
2019-04-18 03:00:00 11.4 5 Sudeste 11 Sudeste 0 -- -- 81
2019-04-18 02:00:00 12 4 Nordeste 23 Este 0 -- -- 79
2019-04-18 01:00:00 12.3 10 Este 20 Este 0 -- -- 76
2019-04-18 00:00:00 12.6 9 Este 19 Este 0 -- -- 71
2019-04-17 23:00:00 12.3 4 Sudeste 10 Sudeste 0 -- -- 73
2019-04-17 22:00:00 13.2 5 Este 22 Sudeste 0 -- -- 68
2019-04-17 21:00:00 14.1 12 Sudeste 24 Sudeste 0 -- -- 65
2019-04-17 20:00:00 15.8 10 Sudeste 36 Sudeste 0 -- -- 61
2019-04-17 19:00:00 17.4 20 Sudeste 34 Sudeste 0 -- -- 54
2019-04-17 18:00:00 18.7 19 Sudeste 32 Sudeste 0 -- -- 49
2019-04-17 17:00:00 20.7 18 Sudeste 31 Sudeste 0 -- -- 47
2019-04-17 16:00:00 20.7 17 Sudeste 33 Sudeste 0 -- -- 50
2019-04-17 15:00:00 19.8 19 Sudeste 30 Sudeste 0 -- -- 53
2019-04-17 14:00:00 19.7 15 Sudeste 29 Sudeste 0 -- -- 54
2019-04-17 13:00:00 19.7 16 Sudeste 27 Sudeste 0 -- -- 52
2019-04-17 12:00:00 18.4 15 Sudeste 28 Sudeste 0 -- -- 55
2019-04-17 11:00:00 17.1 10 Este 23 Este 0 -- -- 61
2019-04-17 10:00:00 15 12 Este 22 Este 0 -- -- 68
2019-04-17 09:00:00 12.1 12 Este 24 Este 0 -- -- 82
2019-04-17 08:00:00 7.7 4 Sudeste 10 Sudeste 0 -- -- 94
2019-04-17 07:00:00 6.8 5 Sudeste 10 Sudeste 0 -- -- 93
2019-04-17 06:00:00 7 4 Sudeste 9 Sudeste 0 -- -- 92
2019-04-17 05:00:00 7.1 4 Sudeste 10 Sudeste 0 -- -- 91
2019-04-17 04:00:00 7.6 4 Sudeste 6 Sur 0 -- -- 90
2019-04-17 03:00:00 7.7 4 Sur 6 Sur 0 -- -- 88
2019-04-17 02:00:00 8.2 3 Sur 5 Este 0 -- -- 83
2019-04-17 01:00:00 9.4 4 Sudeste 5 Sur 0 -- -- 79
2019-04-17 00:00:00 11.1 3 Nordeste 11 Nordeste 0 -- -- 73
2019-04-16 23:00:00 12.2 8 Nordeste 23 Sudeste 0 -- -- 67
2019-04-16 22:00:00 12.9 12 Sur 26 Sur 0 -- -- 63
2019-04-16 21:00:00 14.2 17 Sur 31 Sur 0 -- -- 61
2019-04-16 20:00:00 16.2 18 Sur 32 Sudeste 0 -- -- 56
2019-04-16 19:00:00 18.2 19 Sudeste 29 Sudeste 0 -- -- 50
2019-04-16 18:00:00 19.3 14 Sudeste 27 Sudeste 0 -- -- 53
2019-04-16 17:00:00 20.7 5 Nordeste 16 Sudeste 0 -- -- 48
2019-04-16 16:00:00 20.2 7 Sudeste 17 Oeste 0 -- -- 45
2019-04-16 15:00:00 19.2 6 Norte 15 Norte 0 -- -- 51
2019-04-16 14:00:00 18.3 4 Norte 11 Norte 0 -- -- 52
2019-04-16 13:00:00 17.1 4 Sur 10 Noroeste 0 -- -- 55
2019-04-16 12:00:00 15.6 3 Oeste 13 Oeste 0 -- -- 63
2019-04-16 11:00:00 12.9 7 Oeste 13 Oeste 0 -- -- 72
2019-04-16 10:00:00 11.2 7 Oeste 11 Sudoeste 0 -- -- 80
2019-04-16 09:00:00 8.8 3 Oeste 7 Oeste 0 -- -- 87
2019-04-16 08:00:00 7.3 2 Noroeste 6 Oeste 0 -- -- 94
2019-04-16 07:00:00 6.9 3 Noroeste 8 Noroeste 0 -- -- 90
2019-04-16 06:00:00 7.2 3 Sur 5 Sur 0 -- -- 90
2019-04-16 05:00:00 7.8 0 Calma 4 Nordeste 0 -- -- 88
2019-04-16 04:00:00 8.7 0 Calma 6 Este 0 -- -- 83
2019-04-16 03:00:00 9 3 Sudeste 17 Este 0 -- -- 81
2019-04-16 02:00:00 9.3 6 Este 23 Sudeste 0 -- -- 77
2019-04-16 01:00:00 10.1 14 Este 26 Este 0.4 -- -- 74
2019-04-16 00:00:00 10.8 7 Este 15 Este 0 -- -- 62
2019-04-15 23:00:00 11 6 Este 19 Este 0 -- -- 62
2019-04-15 22:00:00 11.7 12 Sudeste 24 Sudeste 0 -- -- 60
2019-04-15 21:00:00 12.6 16 Sudeste 32 Sudeste 0 -- -- 55
2019-04-15 20:00:00 14.6 18 Sudeste 36 Sudeste 0 -- -- 50
2019-04-15 19:00:00 16 19 Sudeste 33 Sudeste 0 -- -- 49
2019-04-15 18:00:00 16.4 24 Sudeste 35 Sudeste 0 -- -- 49
2019-04-15 17:00:00 17.4 19 Sudeste 32 Sudeste 0 -- -- 49
2019-04-15 16:00:00 18 18 Sudeste 31 Sudeste 0 -- -- 50
2019-04-15 15:00:00 18.8 19 Sudeste 33 Este 0 -- -- 49
2019-04-15 14:00:00 18.6 19 Sudeste 32 Sudeste 0 -- -- 51
2019-04-15 13:00:00 18.5 15 Sudeste 31 Sudeste 0 -- -- 54
2019-04-15 12:00:00 18.9 13 Sudeste 22 Sudeste 0 -- -- 51
2019-04-15 11:00:00 17.4 11 Sudeste 19 Sudeste 0 -- -- 53
2019-04-15 10:00:00 15.2 5 Este 11 Nordeste 0 -- -- 56
2019-04-15 09:00:00 10.8 3 Sudeste 6 Sudeste 0 -- -- 79
2019-04-15 08:00:00 8.6 2 Sur 4 Sur 0 -- -- 86
2019-04-15 07:00:00 9.3 3 Este 10 Este 0 -- -- 84
2019-04-15 06:00:00 9.7 4 Nordeste 9 Este 0 -- -- 87
2019-04-15 05:00:00 10.1 4 Este 10 Nordeste 0 -- -- 86
2019-04-15 04:00:00 11.2 4 Este 14 Este 0 -- -- 85
2019-04-15 03:00:00 11.7 8 Este 12 Este 0 -- -- 83
2019-04-15 02:00:00 12.7 6 Sudeste 10 Este 0 -- -- 79
2019-04-15 01:00:00 14.3 4 Sudeste 9 Este 0 -- -- 72
2019-04-15 00:00:00 16.9 5 Sudoeste 20 Sudoeste 0 -- -- 63
2019-04-14 23:00:00 17.4 9 Sudoeste 20 Oeste 0 -- -- 62
2019-04-14 22:00:00 18.8 9 Sudoeste 21 Sudoeste 0 -- -- 57
2019-04-14 21:00:00 20.2 11 Oeste 23 Oeste 0 -- -- 52
2019-04-14 20:00:00 22.3 14 Oeste 32 Oeste 0 -- -- 48
2019-04-14 19:00:00 24.2 16 Oeste 40 Oeste 0 -- -- 43
2019-04-14 18:00:00 24.9 18 Oeste 37 Oeste 0 -- -- 41
2019-04-14 17:00:00 24.8 19 Oeste 36 Oeste 0 -- -- 41
2019-04-14 16:00:00 23.3 15 Oeste 31 Oeste 0 -- -- 43
2019-04-14 15:00:00 22.3 7 Oeste 24 Oeste 0 -- -- 43
2019-04-14 14:00:00 21 9 Oeste 25 Oeste 0 -- -- 40
2019-04-14 13:00:00 19.4 12 Oeste 23 Oeste 0 -- -- 40
2019-04-14 12:00:00 17.1 5 Noroeste 13 Noroeste 0 -- -- 44
2019-04-14 11:00:00 14.8 4 Noroeste 11 Noroeste 0 -- -- 45
2019-04-14 10:00:00 12.5 4 Noroeste 8 Norte 0 -- -- 47
2019-04-14 09:00:00 9.6 2 Noroeste 5 Sur 0 -- -- 50
2019-04-14 08:00:00 4.3 4 Sur 5 Sur 0 -- -- 73
2019-04-14 07:00:00 4.4 0 Calma 9 Norte 0 -- -- 70
2019-04-14 06:00:00 4.4 3 Sudoeste 6 Sudeste 0 -- -- 69
2019-04-14 05:00:00 5.1 0 Calma 4 Sudeste 0 -- -- 66
2019-04-14 04:00:00 6.7 0 Calma 8 Oeste 0 -- -- 56
2019-04-14 03:00:00 7.6 0 Calma 7 Norte 0 -- -- 54
2019-04-14 02:00:00 11.1 3 Noroeste 14 Sudoeste 0 -- -- 38
2019-04-14 01:00:00 12.2 9 Sudoeste 15 Sudoeste 0 -- -- 32
2019-04-14 00:00:00 14.1 8 Sudoeste 17 Sudoeste 0 -- -- 28
2019-04-13 23:00:00 14.8 9 Sudoeste 16 Sudoeste 0 -- -- 26
2019-04-13 22:00:00 15.5 9 Sudoeste 14 Sudoeste 0 -- -- 25
2019-04-13 21:00:00 16.6 7 Sudoeste 13 Oeste 0 -- -- 33
2019-04-13 20:00:00 20.9 5 Oeste 15 Sudoeste 0 -- -- 34
2019-04-13 19:00:00 22.2 9 Oeste 24 Oeste 0 -- -- 25
2019-04-13 18:00:00 22.1 14 Oeste 24 Sudoeste 0 -- -- 24
2019-04-13 17:00:00 21.8 13 Oeste 28 Oeste 0 -- -- 29
2019-04-13 16:00:00 20.9 13 Oeste 26 Oeste 0 -- -- 31
2019-04-13 15:00:00 19.4 13 Oeste 26 Sudoeste 0 -- -- 36
2019-04-13 14:00:00 17.6 13 Oeste 25 Oeste 0 -- -- 46
2019-04-13 13:00:00 15.9 11 Oeste 23 Oeste 0 -- -- 51
2019-04-13 12:00:00 13.8 12 Oeste 24 Oeste 0 -- -- 58
2019-04-13 11:00:00 11.3 12 Oeste 21 Oeste 0 -- -- 64
2019-04-13 10:00:00 9.2 4 Noroeste 14 Oeste 0 -- -- 73
2019-04-13 09:00:00 7.3 5 Noroeste 18 Oeste 0 -- -- 77
2019-04-13 08:00:00 5.4 10 Oeste 17 Oeste 0 -- -- 83
2019-04-13 07:00:00 2.3 4 Sudeste 8 Sudeste 0 -- -- 87
2019-04-13 06:00:00 3.3 4 Sur 7 Sudeste 0 -- -- 83
2019-04-13 05:00:00 5.2 3 Sudeste 11 Oeste 0 -- -- 78
2019-04-13 04:00:00 5.9 4 Sudeste 11 Oeste 0 -- -- 80
2019-04-13 03:00:00 6.5 4 Oeste 8 Nordeste 0 -- -- 83
2019-04-13 02:00:00 7.4 0 Calma 5 Oeste 0 -- -- 74
2019-04-13 01:00:00 8.5 2 Noroeste 9 Este 0 -- -- 69
2019-04-13 00:00:00 11 2 Sudoeste 13 Oeste 0 -- -- 58
2019-04-12 23:00:00 12.8 9 Oeste 23 Oeste 0 -- -- 52
2019-04-12 22:00:00 14.1 12 Oeste 19 Oeste 0 -- -- 45
2019-04-12 21:00:00 15.6 9 Oeste 19 Oeste 0 -- -- 43
2019-04-12 20:00:00 18.8 9 Oeste 27 Oeste 0 -- -- 32
2019-04-12 19:00:00 20.6 13 Oeste 28 Oeste 0 -- -- 28
2019-04-12 18:00:00 21 15 Oeste 30 Oeste 0 -- -- 29
2019-04-12 17:00:00 20.8 14 Oeste 32 Oeste 0 -- -- 32
2019-04-12 16:00:00 20.2 14 Oeste 32 Oeste 0 -- -- 36
2019-04-12 15:00:00 19.1 13 Oeste 29 Oeste 0 -- -- 41
2019-04-12 14:00:00 17.6 15 Oeste 31 Oeste 0 -- -- 47
2019-04-12 13:00:00 15.6 15 Oeste 28 Oeste 0 -- -- 57
2019-04-12 12:00:00 13.6 16 Oeste 28 Oeste 0 -- -- 62
2019-04-12 11:00:00 11.6 18 Oeste 27 Oeste 0 -- -- 68
2019-04-12 10:00:00 10 16 Oeste 28 Oeste 0 -- -- 75
2019-04-12 09:00:00 8 14 Oeste 21 Oeste 0 -- -- 81
2019-04-12 08:00:00 6.3 9 Oeste 16 Sudoeste 0 -- -- 86
2019-04-12 07:00:00 6.5 6 Sudoeste 19 Oeste 0 -- -- 84
2019-04-12 06:00:00 6.6 10 Sudoeste 23 Sudoeste 0 -- -- 82
2019-04-12 05:00:00 7.1 14 Sudoeste 25 Sudoeste 0 -- -- 78
2019-04-12 04:00:00 7.7 13 Sudoeste 25 Oeste 0 -- -- 75
2019-04-12 03:00:00 8.1 14 Sudoeste 30 Sudoeste 0 -- -- 76
2019-04-12 02:00:00 8.9 17 Sudoeste 33 Sudoeste 0 -- -- 71
2019-04-12 01:00:00 9.7 15 Sudoeste 27 Oeste 0 -- -- 67
2019-04-12 00:00:00 10.7 12 Sudoeste 24 Sudoeste 0 -- -- 63
2019-04-11 23:00:00 12.8 12 Sudoeste 22 Sudoeste 0 -- -- 57
2019-04-11 22:00:00 14.2 11 Oeste 21 Oeste 0 -- -- 56
2019-04-11 21:00:00 15.1 6 Oeste 21 Oeste 0 -- -- 50
2019-04-11 20:00:00 16.4 13 Oeste 26 Oeste 0 -- -- 48
2019-04-11 19:00:00 17.6 18 Oeste 36 Noroeste 0 -- -- 45
2019-04-11 18:00:00 18.9 14 Oeste 31 Oeste 0 -- -- 41
2019-04-11 17:00:00 19.3 12 Oeste 28 Oeste 0 -- -- 34
2019-04-11 16:00:00 19.9 16 Oeste 33 Oeste 0 -- -- 33
2019-04-11 15:00:00 19.2 14 Oeste 28 Oeste 0 -- -- 34
2019-04-11 14:00:00 17.3 14 Oeste 28 Oeste 0 -- -- 39
2019-04-11 13:00:00 16 15 Oeste 30 Oeste 0 -- -- 50
2019-04-11 12:00:00 13.9 17 Oeste 31 Oeste 0 -- -- 58
2019-04-11 11:00:00 11.7 18 Oeste 29 Oeste 0 -- -- 65
2019-04-11 10:00:00 9.7 17 Oeste 30 Oeste 0 -- -- 72
2019-04-11 09:00:00 8.2 13 Oeste 24 Sudoeste 0 -- -- 79
2019-04-11 08:00:00 6 14 Oeste 22 Oeste 0 -- -- 86
2019-04-11 07:00:00 6.1 10 Oeste 23 Sudoeste 0 -- -- 84
2019-04-11 06:00:00 6.5 12 Oeste 28 Oeste 0 -- -- 83
2019-04-11 05:00:00 7.2 14 Sudoeste 28 Sudoeste 0 -- -- 81
2019-04-11 04:00:00 7.7 12 Sudoeste 26 Oeste 0 -- -- 79
2019-04-11 03:00:00 8.7 10 Sudoeste 24 Sudoeste 0 -- -- 74
2019-04-11 02:00:00 9.6 13 Sudoeste 24 Sudoeste 0 -- -- 72
2019-04-11 01:00:00 10.2 6 Sudoeste 17 Sudoeste 0 -- -- 70
2019-04-11 00:00:00 11.5 9 Sudoeste 17 Sudoeste 0 -- -- 65
2019-04-10 23:00:00 11.7 5 Sudoeste 12 Sudoeste 0 -- -- 64
2019-04-10 22:00:00 11.9 4 Oeste 11 Oeste 0 -- -- 63
2019-04-10 21:00:00 13.4 7 Oeste 15 Oeste 0 -- -- 56
2019-04-10 20:00:00 15.3 7 Oeste 17 Noroeste 0 -- -- 51
2019-04-10 19:00:00 18 3 Noroeste 15 Norte 0 -- -- 42
2019-04-10 18:00:00 18.4 6 Noroeste 23 Oeste 0 -- -- 39
2019-04-10 17:00:00 17.3 13 Noroeste 36 Noroeste 0 -- -- 44
2019-04-10 16:00:00 18.9 10 Noroeste 23 Noroeste 0 -- -- 42
2019-04-10 15:00:00 17.4 7 Noroeste 21 Noroeste 0 -- -- 49
2019-04-10 14:00:00 16.2 9 Oeste 22 Oeste 0 -- -- 57
2019-04-10 13:00:00 14.6 14 Oeste 24 Oeste 0 -- -- 64
2019-04-10 12:00:00 12.6 10 Oeste 20 Oeste 0 -- -- 71
2019-04-10 11:00:00 11.5 11 Oeste 21 Oeste 0 -- -- 74
2019-04-10 10:00:00 10.1 9 Oeste 21 Oeste 0 -- -- 79
2019-04-10 09:00:00 8.5 9 Oeste 15 Oeste 0 -- -- 85
2019-04-10 08:00:00 6.7 7 Sudoeste 18 Sudoeste 0 -- -- 91
2019-04-10 07:00:00 6.8 8 Sudoeste 18 Oeste 0 -- -- 91
2019-04-10 06:00:00 7.3 12 Oeste 21 Oeste 0 -- -- 91
2019-04-10 05:00:00 7.5 13 Oeste 21 Oeste 0 -- -- 91
2019-04-10 04:00:00 8.2 10 Sudoeste 19 Oeste 0 -- -- 88
2019-04-10 03:00:00 8.5 11 Sudoeste 18 Sudoeste 0 -- -- 86
2019-04-10 02:00:00 9 7 Sudoeste 17 Sudoeste 0 -- -- 85
2019-04-10 01:00:00 9.5 7 Oeste 18 Oeste 0 -- -- 85
2019-04-10 00:00:00 10.3 9 Sudoeste 20 Sur 0 -- -- 84
2019-04-09 23:00:00 10.6 17 Sur 26 Sur 0 -- -- 82
2019-04-09 22:00:00 11 14 Sudeste 32 Sudeste 1 -- -- 77
2019-04-09 21:00:00 12.5 17 Este 33 Este 0.2 -- -- 69
2019-04-09 20:00:00 14.8 13 Este 29 Este 0 -- -- 50
2019-04-09 19:00:00 18.7 10 Oeste 27 Oeste 0 -- -- 39
2019-04-09 18:00:00 19 16 Oeste 33 Oeste 0 -- -- 37
2019-04-09 17:00:00 18.9 14 Oeste 37 Oeste 0 -- -- 39
2019-04-09 16:00:00 18.8 21 Oeste 38 Oeste 0 -- -- 37
2019-04-09 15:00:00 18.4 18 Oeste 41 Oeste 0 -- -- 43
2019-04-09 14:00:00 17.5 19 Oeste 38 Oeste 0 -- -- 47
2019-04-09 13:00:00 16.5 19 Oeste 36 Oeste 0 -- -- 51
2019-04-09 12:00:00 15 15 Oeste 32 Oeste 0 -- -- 62
2019-04-09 11:00:00 13 18 Oeste 31 Oeste 0 -- -- 71
2019-04-09 10:00:00 11.3 17 Oeste 31 Oeste 0 -- -- 75
2019-04-09 09:00:00 9.9 11 Oeste 26 Oeste 0 -- -- 86
2019-04-09 08:00:00 9.8 13 Oeste 33 Oeste 0 -- -- 80
2019-04-09 07:00:00 9.4 19 Oeste 30 Oeste 0 -- -- 87
2019-04-09 06:00:00 9.8 11 Oeste 17 Sudoeste 0 -- -- 87
2019-04-09 05:00:00 10 9 Oeste 14 Oeste 0 -- -- 89
2019-04-09 04:00:00 9.7 4 Sudoeste 13 Sudoeste 0 -- -- 90
2019-04-09 03:00:00 10.2 8 Sudoeste 19 Oeste 0.2 -- -- 89
2019-04-09 02:00:00 9.8 5 Oeste 10 Oeste 0 -- -- 88
2019-04-09 01:00:00 10 0 Calma 8 Oeste 0 -- -- 80
2019-04-09 00:00:00 10.7 0 Calma 4 Este 0 -- -- 78
2019-04-08 23:00:00 12.2 3 Oeste 14 Sur 0 -- -- 74
2019-04-08 22:00:00 13.7 4 Noroeste 23 Oeste 0 -- -- 71
2019-04-08 21:00:00 14.8 11 Oeste 30 Oeste 0 -- -- 64
2019-04-08 20:00:00 16.5 7 Sudoeste 17 Sudoeste 0 -- -- 58
2019-04-08 19:00:00 18.8 12 Oeste 19 Oeste 0 -- -- 50
2019-04-08 18:00:00 19.6 8 Noroeste 24 Oeste 0 -- -- 49
2019-04-08 17:00:00 18.6 12 Noroeste 24 Oeste 0 -- -- 56
2019-04-08 16:00:00 18.8 13 Oeste 30 Oeste 0 -- -- 55
2019-04-08 15:00:00 17.7 12 Noroeste 28 Oeste 0 -- -- 58
2019-04-08 14:00:00 16.3 15 Oeste 32 Oeste 0 -- -- 60
2019-04-08 13:00:00 14.8 13 Oeste 24 Oeste 0 -- -- 63
2019-04-08 12:00:00 13.4 9 Oeste 17 Oeste 0 -- -- 67
2019-04-08 11:00:00 11.3 8 Oeste 12 Oeste 0 -- -- 70
2019-04-08 10:00:00 9.6 4 Norte 9 Norte 0 -- -- 80
2019-04-08 09:00:00 6.9 0 Calma 5 Norte 0 -- -- 90
2019-04-08 08:00:00 5.6 0 Calma 5 Norte 0 -- -- 90
2019-04-08 07:00:00 5.3 0 Calma 2 Sur 0 -- -- 89
2019-04-08 06:00:00 5.2 2 Norte 5 Sur 0 -- -- 89
2019-04-08 05:00:00 4.6 3 Sur 6 Sur 0 -- -- 88
2019-04-08 04:00:00 5.3 0 Calma 4 Oeste 0 -- -- 84
2019-04-08 03:00:00 5.9 0 Calma 4 Este 0 -- -- 84
2019-04-08 02:00:00 5.9 4 Sur 6 Sudeste 0 -- -- 81
2019-04-08 01:00:00 6.7 2 Sudeste 4 Sur 0 -- -- 76
2019-04-08 00:00:00 9.1 2 Este 13 Sudoeste 0 -- -- 67
2019-04-07 23:00:00 10.2 6 Sudoeste 12 Sudoeste 0 -- -- 62
2019-04-07 22:00:00 11.1 5 Sudoeste 9 Oeste 0 -- -- 60
2019-04-07 21:00:00 13.2 6 Oeste 18 Oeste 0 -- -- 53
2019-04-07 20:00:00 15.3 7 Noroeste 27 Oeste 0 -- -- 50
2019-04-07 19:00:00 17 14 Oeste 32 Oeste 0 -- -- 42
2019-04-07 18:00:00 17.4 16 Oeste 34 Oeste 0 -- -- 41
2019-04-07 17:00:00 17.2 16 Oeste 36 Oeste 0 -- -- 42
2019-04-07 16:00:00 17 20 Oeste 37 Oeste 0 -- -- 45
2019-04-07 15:00:00 16.1 18 Oeste 35 Oeste 0 -- -- 52
2019-04-07 14:00:00 15.4 16 Oeste 35 Oeste 0 -- -- 55
2019-04-07 13:00:00 13.9 12 Noroeste 32 Oeste 0 -- -- 58
2019-04-07 12:00:00 12.6 13 Noroeste 31 Noroeste 0 -- -- 67
2019-04-07 11:00:00 10.6 16 Oeste 31 Oeste 0 -- -- 77
2019-04-07 10:00:00 9 15 Oeste 26 Oeste 0 -- -- 84
2019-04-07 09:00:00 6.3 11 Sudoeste 21 Oeste 0 -- -- 97
2019-04-07 08:00:00 4.3 5 Sudoeste 13 Sudoeste 0 -- -- 96
2019-04-07 07:00:00 4.2 4 Sudoeste 6 Oeste 0 -- -- 93
2019-04-07 06:00:00 5.1 4 Oeste 6 Norte 0 -- -- 91
2019-04-07 05:00:00 6.6 4 Noroeste 12 Sudoeste 0 -- -- 88
2019-04-07 04:00:00 6.6 5 Sudoeste 10 Sudoeste 0 -- -- 90
2019-04-07 03:00:00 6.2 4 Sudeste 9 Sudeste 0 -- -- 91
2019-04-07 02:00:00 6.1 5 Sur 8 Sur 0 -- -- 92
2019-04-07 01:00:00 6.2 3 Sudeste 5 Este 0 -- -- 89
2019-04-07 00:00:00 7.8 2 Norte 7 Este 0 -- -- 85
2019-04-06 23:00:00 8.3 3 Norte 15 Oeste 0 -- -- 83
2019-04-06 22:00:00 8.7 10 Oeste 29 Oeste 0 -- -- 80
2019-04-06 21:00:00 9.9 12 Sur 32 Sur 0 -- -- 69
2019-04-06 20:00:00 13.3 2 Sudoeste 14 Sudoeste 0 -- -- 52
2019-04-06 19:00:00 15.5 7 Oeste 19 Oeste 0 -- -- 41
2019-04-06 18:00:00 14.8 6 Sudoeste 18 Noroeste 0 -- -- 46
2019-04-06 17:00:00 14.4 8 Oeste 23 Noroeste 0 -- -- 49
2019-04-06 16:00:00 -- 6 Noroeste 20 Oeste 0 -- -- --
2019-04-06 15:00:00 13.8 15 Oeste 27 Oeste 0 -- -- 53
2019-04-06 14:00:00 12.8 12 Noroeste 25 Oeste 0 -- -- 61
2019-04-06 13:00:00 11.2 13 Oeste 28 Oeste 0 -- -- 65
2019-04-06 12:00:00 9.9 15 Oeste 29 Sudoeste 0 -- -- 72
2019-04-06 11:00:00 8.7 14 Oeste 29 Sudoeste 0 -- -- 78
2019-04-06 10:00:00 7.9 13 Oeste 26 Sudoeste 0 -- -- 83
2019-04-06 09:00:00 7.1 10 Oeste 19 Oeste 0 -- -- 91
2019-04-06 08:00:00 6.3 10 Oeste 18 Oeste 0.2 -- -- 93
2019-04-06 07:00:00 6.3 8 Oeste 17 Oeste 0 -- -- 92
2019-04-06 06:00:00 6.4 8 Oeste 17 Oeste 0 -- -- 91
2019-04-06 05:00:00 6.3 9 Sudoeste 22 Sudoeste 0 -- -- 92
2019-04-06 04:00:00 6.2 12 Oeste 31 Sudoeste 0 -- -- 93
2019-04-06 03:00:00 6.7 12 Sudoeste 25 Oeste 0 -- -- 93
2019-04-06 02:00:00 8 14 Oeste 29 Oeste 0.8 -- -- 92
2019-04-06 01:00:00 8.6 2 Noroeste 10 Norte 0.4 -- -- 94
2019-04-06 00:00:00 8.6 5 Sudeste 13 Sudeste 0.4 -- -- 93
2019-04-05 23:00:00 9 8 Sudeste 18 Este 0 -- -- 93
2019-04-05 22:00:00 9.4 6 Este 12 Este 2 -- -- 93
2019-04-05 21:00:00 9.8 2 Sudeste 11 Sudoeste 1.4 -- -- 89
2019-04-05 20:00:00 10.5 6 Oeste 27 Sudoeste 0 -- -- 82
2019-04-05 19:00:00 13.6 11 Sudoeste 26 Sudeste 0 -- -- 53
2019-04-05 18:00:00 14.1 7 Nordeste 28 Este 0 -- -- 58
2019-04-05 17:00:00 13.6 13 Este 22 Este 0 -- -- 68
2019-04-05 16:00:00 14.1 11 Sudeste 24 Sudeste 0 -- -- 65
2019-04-05 15:00:00 14.5 9 Nordeste 17 Este 0 -- -- 59
2019-04-05 14:00:00 14.1 10 Nordeste 21 Este 0 -- -- 64
2019-04-05 13:00:00 12.1 10 Nordeste 21 Nordeste 0 -- -- 74
2019-04-05 12:00:00 10.3 9 Este 18 Este 0 -- -- 81
2019-04-05 11:00:00 7.7 5 Norte 9 Norte 0.2 -- -- 85
2019-04-05 10:00:00 6.6 5 Nordeste 10 Nordeste 0.8 -- -- 86
2019-04-05 09:00:00 5.8 5 Nordeste 15 Nordeste 0 -- -- 75
2019-04-05 08:00:00 4 0 Calma 11 Nordeste 0 -- -- 73
2019-04-05 07:00:00 2.2 3 Sudeste 8 Sudeste 0 -- -- 78
2019-04-05 06:00:00 2.1 4 Sudeste 9 Sudeste 0 -- -- 79
2019-04-05 05:00:00 2 5 Sur 12 Sur 0 -- -- 78
2019-04-05 04:00:00 1.9 6 Sudeste 8 Sudeste 0 -- -- 79
2019-04-05 03:00:00 1.7 4 Sudeste 7 Sudeste 0 -- -- 76
2019-04-05 02:00:00 2.6 0 Calma 7 Norte 0 -- -- 72
2019-04-05 01:00:00 4.9 5 Norte 10 Sudeste 0 -- -- 62
2019-04-05 00:00:00 4.8 8 Sur 12 Sur 0 -- -- 54
2019-04-04 23:00:00 4.6 8 Sur 11 Sur 0 -- -- 57
2019-04-04 22:00:00 6.1 4 Sudeste 8 Sudeste 0 -- -- 56
2019-04-04 21:00:00 8.7 4 Oeste 9 Norte 0 -- -- 46
2019-04-04 20:00:00 12.3 6 Oeste 18 Oeste 0 -- -- 37
2019-04-04 19:00:00 15.2 6 Noroeste 21 Norte 0 -- -- 32
2019-04-04 18:00:00 15.1 9 Oeste 30 Oeste 0 -- -- 33
2019-04-04 17:00:00 14.8 15 Noroeste 33 Oeste 0 -- -- 32
2019-04-04 16:00:00 14.6 12 Noroeste 34 Oeste 0 -- -- 34
2019-04-04 15:00:00 13.9 16 Oeste 39 Oeste 0 -- -- 38
2019-04-04 14:00:00 12.9 16 Oeste 38 Oeste 0 -- -- 43
2019-04-04 13:00:00 12.1 17 Oeste 33 Oeste 0 -- -- 46
2019-04-04 12:00:00 9.8 14 Oeste 33 Oeste 0 -- -- 53
2019-04-04 11:00:00 8.1 14 Oeste 28 Oeste 0 -- -- 59
2019-04-04 10:00:00 6 13 Oeste 28 Oeste 0 -- -- 68
2019-04-04 09:00:00 3.7 9 Oeste 16 Oeste 0 -- -- 75
2019-04-04 08:00:00 2 13 Oeste 21 Oeste 0 -- -- 78
2019-04-04 07:00:00 1.8 10 Oeste 17 Oeste 0 -- -- 77
2019-04-04 06:00:00 2.1 8 Oeste 17 Sudoeste 0 -- -- 75
2019-04-04 05:00:00 2.9 5 Sudoeste 28 Oeste 0 -- -- 71
2019-04-04 04:00:00 3.7 16 Oeste 35 Oeste 0 -- -- 72
2019-04-04 03:00:00 4.1 17 Oeste 28 Oeste 0 -- -- 74
2019-04-04 02:00:00 4.7 15 Oeste 28 Oeste 0 -- -- 78
2019-04-04 01:00:00 5.8 18 Oeste 29 Oeste 0 -- -- 75
2019-04-04 00:00:00 6.6 17 Oeste 31 Oeste 0 -- -- 68
2019-04-03 23:00:00 6.5 10 Sudoeste 23 Sudoeste 0 -- -- 74
2019-04-03 22:00:00 6.9 14 Oeste 28 Oeste 0 -- -- 81
2019-04-03 21:00:00 7.6 13 Sudoeste 26 Sudoeste 0 -- -- 80
2019-04-03 20:00:00 8.9 10 Oeste 22 Sudoeste 0 -- -- 73
2019-04-03 19:00:00 9.3 8 Sudoeste 21 Oeste 0 -- -- 76
2019-04-03 18:00:00 9.7 13 Oeste 25 Oeste 0.2 -- -- 78
2019-04-03 17:00:00 10.8 11 Oeste 26 Oeste 0 -- -- 77
2019-04-03 16:00:00 12.5 12 Noroeste 27 Oeste 0 -- -- 68
2019-04-03 15:00:00 13 13 Oeste 22 Oeste 0 -- -- 67
2019-04-03 14:00:00 13.5 11 Oeste 21 Oeste 0 -- -- 68
2019-04-03 13:00:00 13 8 Oeste 19 Sudoeste 0 -- -- 70
2019-04-03 12:00:00 12.1 8 Oeste 21 Sudoeste 0 -- -- 73
2019-04-03 11:00:00 11.5 13 Oeste 21 Sudoeste 0 -- -- 78
2019-04-03 10:00:00 10.4 12 Oeste 22 Oeste 0 -- -- 79
2019-04-03 09:00:00 10.2 10 Oeste 17 Oeste 0 -- -- 85
2019-04-03 08:00:00 9.9 3 Oeste 9 Oeste 0 -- -- 84
2019-04-03 07:00:00 10 4 Sudoeste 8 Sudoeste 0 -- -- 87
2019-04-03 06:00:00 10.2 4 Sur 9 Sudeste 0 -- -- 87
2019-04-03 05:00:00 9.7 7 Sur 9 Sur 0 -- -- 85
2019-04-03 04:00:00 10.3 2 Sur 4 Nordeste 0 -- -- 81
2019-04-03 03:00:00 11 0 Calma 5 Sur 0 -- -- 77
2019-04-03 02:00:00 11.4 0 Calma 5 Este 0 -- -- 75
2019-04-03 01:00:00 12.7 2 Sur 15 Sudoeste 0 -- -- 67
2019-04-03 00:00:00 12.4 8 Sudoeste 13 Sudoeste 0 -- -- 67
2019-04-02 23:00:00 13 7 Sudoeste 17 Sudoeste 0 -- -- 64
2019-04-02 22:00:00 13.5 6 Sudoeste 14 Sudoeste 0 -- -- 62
2019-04-02 21:00:00 15.1 6 Sudoeste 9 Sudoeste 0 -- -- 62
2019-04-02 20:00:00 18.2 4 Sudoeste 18 Sudoeste 0 -- -- 53
2019-04-02 19:00:00 19.7 8 Sudoeste 27 Sudoeste 0 -- -- 47
2019-04-02 18:00:00 19.8 13 Oeste 27 Sudoeste 0 -- -- 43
2019-04-02 17:00:00 17.6 13 Sudoeste 27 Oeste 0 -- -- 51
2019-04-02 16:00:00 17.8 16 Oeste 28 Oeste 0 -- -- 52
2019-04-02 15:00:00 19.9 14 Oeste 27 Oeste 0 -- -- 53
2019-04-02 14:00:00 18.7 11 Oeste 25 Oeste 0 -- -- 57
2019-04-02 13:00:00 17.6 14 Oeste 24 Oeste 0 -- -- 59
2019-04-02 12:00:00 15.1 10 Oeste 19 Sudoeste 0 -- -- 61
2019-04-02 11:00:00 12.6 6 Oeste 11 Oeste 0 -- -- 68
2019-04-02 10:00:00 11.5 4 Oeste 7 Oeste 0 -- -- 69
2019-04-02 09:00:00 8.4 0 Calma 5 Sudeste 0 -- -- 86
2019-04-02 08:00:00 6.7 2 Sudeste 5 Sudeste 0 -- -- 87
2019-04-02 07:00:00 6.2 4 Sur 6 Sur 0 -- -- 85
2019-04-02 06:00:00 6.9 -- -- -- -- 0 -- -- 79
2019-04-02 05:00:00 8.3 4 Sudoeste 7 Sudoeste 0 -- -- 77
2019-04-02 04:00:00 8.8 2 Sur 4 Sudeste 0 -- -- 78
2019-04-02 03:00:00 10.1 0 Calma 4 Noroeste 0 -- -- 72
2019-04-02 02:00:00 10.7 2 Sur 5 Sur 0 -- -- 68
2019-04-02 01:00:00 10.7 2 Sur 6 Sur 0 -- -- 72
2019-04-02 00:00:00 11.6 3 Sur 7 Sudoeste 0 -- -- 65
2019-04-01 23:00:00 12.9 4 Sudoeste 10 Sudoeste 0 -- -- 64
2019-04-01 22:00:00 12.8 2 Sudoeste 7 Noroeste 0 -- -- 70
2019-04-01 21:00:00 13.5 4 Oeste 6 Oeste 0 -- -- 67
2019-04-01 20:00:00 15.2 0 Calma 17 Oeste 0 -- -- 62
2019-04-01 19:00:00 16 10 Oeste 19 Oeste 0 -- -- 61
2019-04-01 18:00:00 17.8 12 Oeste 21 Oeste 0 -- -- 50
2019-04-01 17:00:00 18.3 10 Oeste 21 Sudoeste 0 -- -- 48
2019-04-01 16:00:00 18 10 Oeste 21 Noroeste 0 -- -- 48
2019-04-01 15:00:00 17.3 8 Oeste 22 Oeste 0 -- -- 54
2019-04-01 14:00:00 16.4 12 Oeste 24 Sudoeste 0 -- -- 57
2019-04-01 13:00:00 14.9 9 Oeste 19 Oeste 0 -- -- 62
2019-04-01 12:00:00 13.4 8 Oeste 15 Oeste 0 -- -- 73
2019-04-01 11:00:00 11.8 4 Noroeste 10 Oeste 0 -- -- 82
2019-04-01 10:00:00 10.5 3 Sudoeste 10 Oeste 0 -- -- 90
2019-04-01 09:00:00 9.5 3 Oeste 10 Sudoeste 0 -- -- 91
2019-04-01 08:00:00 9.2 6 Sudoeste 11 Oeste 0 -- -- 91
2019-04-01 07:00:00 9.4 4 Sudoeste 10 Sudoeste 0 -- -- 91
2019-04-01 06:00:00 9.7 3 Sur 7 Sur 0 -- -- 91
2019-04-01 05:00:00 10 3 Noroeste 15 Oeste 0 -- -- 89
2019-04-01 04:00:00 10.3 10 Oeste 14 Oeste 0 -- -- 85
2019-04-01 03:00:00 10 3 Sudoeste 10 Sudoeste 0 -- -- 83
2019-04-01 02:00:00 9.7 0 Calma 4 Oeste 0 -- -- 82
2019-04-01 01:00:00 9.8 2 Oeste 4 Oeste 0 -- -- 80
2019-04-01 00:00:00 10.1 0 Calma 4 Sur 0 -- -- 78
2019-03-31 23:00:00 10.4 3 Sur 4 Sur 0 -- -- 75
2019-03-31 22:00:00 11.6 0 Calma 7 Oeste 0 -- -- 72
2019-03-31 21:00:00 12.5 5 Oeste 14 Oeste 0 -- -- 70
2019-03-31 20:00:00 13.9 8 Oeste 17 Oeste 0 -- -- 68
2019-03-31 19:00:00 15.3 9 Oeste 17 Oeste 0 -- -- 62
2019-03-31 18:00:00 16.2 4 Noroeste 8 Este 0 -- -- 60
2019-03-31 17:00:00 16.4 4 Este 12 Norte 0 -- -- 56
2019-03-31 16:00:00 15.8 4 Norte 15 Sudeste 0 -- -- 60
2019-03-31 15:00:00 15.2 7 Este 20 Este 0 -- -- 62
2019-03-31 14:00:00 14.3 10 Este 17 Este 0 -- -- 64
2019-03-31 13:00:00 13.4 8 Nordeste 16 Nordeste 0 -- -- 70
2019-03-31 12:00:00 12.3 6 Este 14 Norte 0 -- -- 72
2019-03-31 11:00:00 11 7 Nordeste 15 Nordeste 0 -- -- 77
2019-03-31 10:00:00 7.7 4 Nordeste 9 Sudeste 0 -- -- 87
2019-03-31 09:00:00 4.9 4 Sudeste 7 Sudeste 0 -- -- 94
2019-03-31 08:00:00 2.6 5 Sudeste 6 Sudeste 0 -- -- 93
2019-03-31 07:00:00 3 5 Sudeste 6 Sur 0 -- -- 93
2019-03-31 06:00:00 3.1 0 Calma 5 Sudeste 0 -- -- 91
2019-03-31 05:00:00 3.9 4 Sudeste 8 Sudeste 0 -- -- 90
2019-03-31 03:00:00 5.3 4 Sudeste 10 Sudeste 0 -- -- 86
2019-03-31 01:00:00 6.8 6 Sudeste 21 Este 0 -- -- 83
2019-03-31 00:00:00 7.6 7 Este 16 Este 0 -- -- 84
2019-03-30 23:00:00 7.8 3 Nordeste 12 Nordeste 0 -- -- 81
2019-03-30 22:00:00 9.6 5 Este 23 Sudeste 0 -- -- 72
2019-03-30 21:00:00 10.3 13 Sudeste 22 Sudeste 0 -- -- 73
2019-03-30 20:00:00 11.4 13 Sudeste 26 Sudeste 0 -- -- 69
2019-03-30 19:00:00 13.6 17 Sudeste 29 Sudeste 0 -- -- 60
2019-03-30 18:00:00 16.5 14 Sudeste 25 Sudeste 0 -- -- 51
2019-03-30 17:00:00 18.3 12 Sudeste 23 Sudeste 0 -- -- 43
2019-03-30 16:00:00 18.9 9 Sudeste 22 Sudeste 0 -- -- 38
2019-03-30 15:00:00 18.9 9 Sudeste 23 Este 0 -- -- 38
2019-03-30 14:00:00 18.5 11 Sudeste 21 Sudeste 0 -- -- 40
2019-03-30 13:00:00 17.3 5 Nordeste 20 Este 0 -- -- 42
2019-03-30 12:00:00 16.2 5 Nordeste 14 Este 0 -- -- 46
2019-03-30 11:00:00 14 5 Norte 12 Norte 0 -- -- 56
2019-03-30 10:00:00 11.9 5 Nordeste 9 Nordeste 0 -- -- 65
2019-03-30 09:00:00 8.5 3 Este 8 Sudeste 0 -- -- 76
2019-03-30 08:00:00 3.7 3 Sudeste 5 Este 0 -- -- 92
2019-03-30 07:00:00 1.9 2 Este 5 Sudeste 0 -- -- 88
2019-03-30 06:00:00 3 4 Sur 8 Sudeste 0 -- -- 86
2019-03-30 05:00:00 3.1 5 Sur 8 Sur 0 -- -- 84
2019-03-30 04:00:00 3.4 4 Sur 9 Sudeste 0 -- -- 81
2019-03-30 03:00:00 4.1 5 Sur 8 Sur 0 -- -- 82
2019-03-30 02:00:00 4.9 5 Sur 8 Sudeste 0 -- -- 78
2019-03-30 01:00:00 5.6 4 Sur 8 Sudeste 0 -- -- 71
2019-03-30 00:00:00 6.2 3 Sudeste 9 Sudeste 0 -- -- 69
2019-03-29 23:00:00 7.6 0 Calma 12 Este 0 -- -- 68
2019-03-29 22:00:00 9.2 3 Noroeste 23 Sudeste 0 -- -- 63
2019-03-29 21:00:00 10.8 16 Sudeste 29 Sur 0 -- -- 57
2019-03-29 20:00:00 11.9 13 Sudeste 26 Sur 0 -- -- 55
2019-03-29 19:00:00 -- 15 Sudeste 31 Sudeste 0 -- -- --
2019-03-29 18:00:00 16.5 17 Sudeste 28 Sudeste 0 -- -- 41
2019-03-29 17:00:00 17.7 14 Sudeste 29 Sudeste 0 -- -- 39
2019-03-29 16:00:00 18.5 15 Sur 26 Sudeste 0 -- -- 40
2019-03-29 15:00:00 17.9 9 Sudoeste 16 Sudoeste 0 -- -- 37
2019-03-29 14:00:00 18.5 5 Nordeste 14 Noroeste 0 -- -- 33
2019-03-29 13:00:00 18.4 5 Noroeste 13 Noroeste 0 -- -- 34
2019-03-29 12:00:00 17 5 Norte 13 Noroeste 0 -- -- 35
2019-03-29 11:00:00 15.4 4 Noroeste 9 Norte 0 -- -- 44
2019-03-29 10:00:00 12.5 4 Norte 8 Norte 0 -- -- 54
2019-03-29 09:00:00 8.9 5 Este 9 Sudeste 0 -- -- 65
2019-03-29 08:00:00 4.9 4 Este 8 Sudeste 0 -- -- 80
2019-03-29 07:00:00 2.3 4 Sudeste 8 Sudeste 0 -- -- 86
2019-03-29 06:00:00 3 6 Sudeste 8 Sudeste 0 -- -- 84
2019-03-29 05:00:00 2.8 5 Sudeste 9 Sudeste 0 -- -- 84
2019-03-29 04:00:00 3.2 5 Sur 6 Sur 0 -- -- 81
2019-03-29 03:00:00 3.9 3 Sudeste 5 Sudeste 0 -- -- 78
2019-03-29 02:00:00 4.5 3 Sudeste 5 Este 0 -- -- 73
2019-03-29 01:00:00 5.9 2 Este 9 Sudeste 0 -- -- 69
2019-03-29 00:00:00 7.6 4 Sudeste 13 Este 0 -- -- 62
2019-03-28 23:00:00 8.9 5 Este 13 Nordeste 0 -- -- 60
2019-03-28 22:00:00 10.2 8 Este 23 Sudeste 0 -- -- 63
2019-03-28 21:00:00 10.9 16 Sur 24 Sur 0 -- -- 55
2019-03-28 20:00:00 12.3 15 Sudeste 26 Sudeste 0 -- -- 45
2019-03-28 19:00:00 14.9 15 Sudeste 24 Sudeste 0 -- -- 40
2019-03-28 18:00:00 18.8 4 Noroeste 12 Noroeste 0 -- -- 36
2019-03-28 17:00:00 19.1 5 Noroeste 18 Oeste 0 -- -- 38
2019-03-28 16:00:00 18.8 7 Noroeste 22 Noroeste 0 -- -- 37
2019-03-28 15:00:00 18.5 8 Oeste 25 Oeste 0 -- -- 41
2019-03-28 14:00:00 17.5 11 Oeste 23 Oeste 0 -- -- 43
2019-03-28 13:00:00 15.5 6 Oeste 17 Oeste 0 -- -- 50
2019-03-28 12:00:00 13.8 8 Oeste 18 Oeste 0 -- -- 53
2019-03-28 11:00:00 12.7 6 Oeste 13 Oeste 0 -- -- 53
2019-03-28 10:00:00 10.6 6 Oeste 14 Oeste 0 -- -- 59
2019-03-28 09:00:00 8.7 4 Noroeste 11 Oeste 0 -- -- 65
2019-03-28 08:00:00 3.9 4 Sudeste 6 Sudeste 0 -- -- 87
2019-03-28 07:00:00 2 4 Sur 5 Sudeste 0 -- -- 89
2019-03-28 06:00:00 3.2 2 Noroeste 9 Sudoeste 0 -- -- 88
2019-03-28 05:00:00 3.5 5 Sudoeste 10 Oeste 0 -- -- 92
2019-03-28 04:00:00 2.3 3 Sudeste 6 Sudeste 0 -- -- 88
2019-03-28 03:00:00 3.2 4 Sudeste 8 Este 0 -- -- 83
2019-03-28 02:00:00 4.6 4 Sudeste 5 Sudeste 0 -- -- 84
2019-03-28 01:00:00 5.3 0 Calma 5 Oeste 0 -- -- 82
2019-03-28 00:00:00 6.1 0 Calma 6 Este 0 -- -- 76
2019-03-27 23:00:00 7.9 3 Nordeste 22 Sudeste 0 -- -- 71
2019-03-27 22:00:00 10.1 14 Sudeste 23 Sur 0 -- -- 66
2019-03-27 21:00:00 10.8 14 Sur 24 Sudeste 0 -- -- 61
2019-03-27 20:00:00 12.4 10 Sur 21 Sudeste 0 -- -- 51
2019-03-27 19:00:00 17.1 0 Calma 5 Noroeste 0 -- -- 39
2019-03-27 18:00:00 19.2 3 Noroeste 13 Oeste 0 -- -- 28
2019-03-27 17:00:00 19.2 6 Oeste 16 Oeste 0 -- -- 27
2019-03-27 16:00:00 19 6 Oeste 21 Oeste 0 -- -- 30
2019-03-27 15:00:00 18.4 10 Noroeste 22 Oeste 0 -- -- 33
2019-03-27 14:00:00 17.3 13 Oeste 24 Oeste 0 -- -- 40
2019-03-27 13:00:00 15.9 9 Oeste 24 Oeste 0 -- -- 44
2019-03-27 12:00:00 13.9 11 Oeste 19 Noroeste 0 -- -- 47
2019-03-27 11:00:00 12.1 9 Oeste 18 Oeste 0 -- -- 55
2019-03-27 10:00:00 10 7 Oeste 13 Oeste 0 -- -- 63
2019-03-27 09:00:00 7.8 5 Oeste 10 Oeste 0 -- -- 68
2019-03-27 08:00:00 3 3 Sudeste 7 Sudeste 0 -- -- 91
2019-03-27 07:00:00 0.6 3 Sur 6 Sur 0 -- -- 90
2019-03-27 06:00:00 0.8 4 Sudeste 6 Sudeste 0 -- -- 89
2019-03-27 05:00:00 1 5 Sudeste 7 Sudeste 0 -- -- 89
2019-03-27 04:00:00 1.7 0 Calma 7 Sudeste 0 -- -- 87
2019-03-27 03:00:00 2.1 6 Sudeste 8 Sudeste 0 -- -- 85
2019-03-27 02:00:00 3.5 4 Sudeste 7 Sudeste 0 -- -- 83
2019-03-27 01:00:00 4.8 0 Calma 4 Sudeste 0 -- -- 80
2019-03-27 00:00:00 6 0 Calma 6 Noroeste 0 -- -- 75
2019-03-26 23:00:00 6.8 4 Sudeste 6 Sur 0 -- -- 72
2019-03-26 22:00:00 8.2 0 Calma 9 Este 0 -- -- 68
2019-03-26 21:00:00 9.8 4 Este 24 Sur 0 -- -- 63
2019-03-26 20:00:00 11.5 16 Sur 30 Sur 0 -- -- 58
2019-03-26 19:00:00 14.5 13 Sudeste 25 Sudeste 0 -- -- 50
2019-03-26 18:00:00 19.7 8 Oeste 15 Oeste 0 -- -- 28
2019-03-26 17:00:00 19.8 8 Oeste 18 Oeste 0 -- -- 28
2019-03-26 16:00:00 19.6 8 Oeste 21 Noroeste 0 -- -- 28
2019-03-26 15:00:00 18.7 10 Noroeste 26 Oeste 0 -- -- 33
2019-03-26 14:00:00 17.5 12 Oeste 27 Oeste 0 -- -- 37
2019-03-26 13:00:00 15.7 11 Sudoeste 27 Oeste 0 -- -- 44
2019-03-26 12:00:00 13.7 11 Oeste 33 Oeste 0 -- -- 55
2019-03-26 11:00:00 11.5 13 Oeste 24 Noroeste 0 -- -- 61
2019-03-26 10:00:00 9.5 15 Oeste 26 Oeste 0 -- -- 68
2019-03-26 09:00:00 7.5 6 Noroeste 11 Oeste 0 -- -- 75
2019-03-26 08:00:00 3.8 4 Norte 10 Norte 0 -- -- 84
2019-03-26 07:00:00 1.6 6 Sudoeste 8 Sudeste 0 -- -- 85
2019-03-26 06:00:00 3.5 4 Sudeste 13 Sudoeste 0 -- -- 79
2019-03-26 05:00:00 4.6 4 Sur 10 Oeste 0 -- -- 76
2019-03-26 04:00:00 6.2 6 Sudoeste 18 Oeste 0 -- -- 73
2019-03-26 03:00:00 7 8 Sudoeste 23 Sudoeste 0 -- -- 71
2019-03-26 02:00:00 7.8 14 Sudoeste 26 Sudoeste 0 -- -- 70
2019-03-26 01:00:00 8.6 16 Sudoeste 30 Sudoeste 0 -- -- 67
2019-03-26 00:00:00 9.6 15 Sudoeste 30 Sudoeste 0 -- -- 63
2019-03-25 23:00:00 10.7 17 Sudoeste 28 Sudoeste 0 -- -- 58
2019-03-25 22:00:00 11.6 13 Sudoeste 23 Sudoeste 0 -- -- 53
2019-03-25 21:00:00 12.8 12 Sudoeste 22 Sudoeste 0 -- -- 48
2019-03-25 20:00:00 14.3 11 Oeste 21 Sudoeste 0 -- -- 43
2019-03-25 19:00:00 17.1 15 Oeste 30 Oeste 0 -- -- 37
2019-03-25 18:00:00 19.7 17 Oeste 31 Sudoeste 0 -- -- 36
2019-03-25 17:00:00 20.7 21 Oeste 34 Oeste 0 -- -- 38
2019-03-25 16:00:00 21.2 16 Oeste 35 Oeste 0 -- -- 40
2019-03-25 15:00:00 20.5 15 Oeste 29 Oeste 0 -- -- 40
2019-03-25 14:00:00 19.3 14 Oeste 33 Oeste 0 -- -- 42
2019-03-25 13:00:00 17.5 18 Oeste 33 Oeste 0 -- -- 46
2019-03-25 12:00:00 15.9 18 Oeste 31 Oeste 0 -- -- 49
2019-03-25 11:00:00 14.7 14 Oeste 27 Oeste 0 -- -- 53
2019-03-25 10:00:00 13.1 11 Oeste 23 Oeste 0 -- -- 59
2019-03-25 09:00:00 11.2 7 Oeste 14 Oeste 0 -- -- 60
2019-03-25 08:00:00 8.8 5 Oeste 9 Oeste 0 -- -- 68
2019-03-25 07:00:00 7.1 2 Oeste 12 Sudoeste 0 -- -- 71
2019-03-25 06:00:00 7.4 5 Sudoeste 13 Oeste 0 -- -- 70
2019-03-25 05:00:00 8.7 6 Sudoeste 16 Oeste 0 -- -- 60
2019-03-25 04:00:00 8.2 8 Sudoeste 16 Oeste 0 -- -- 65
2019-03-25 03:00:00 7 3 Este 6 Sudeste 0 -- -- 69
2019-03-25 02:00:00 8.8 5 Sudeste 9 Sudeste 0 -- -- 64
2019-03-25 01:00:00 9.8 6 Sur 8 Sur 0 -- -- 61
2019-03-25 00:00:00 10.1 5 Sur 6 Sur 0 -- -- 62
2019-03-24 23:00:00 11.6 0 Calma 10 Nordeste 0 -- -- 58
2019-03-24 22:00:00 14.1 7 Sudoeste 17 Sur 0 -- -- 50
2019-03-24 21:00:00 14.7 13 Sur 18 Sur 0 -- -- 48
2019-03-24 20:00:00 16 13 Sur 19 Sur 0 -- -- 45
2019-03-24 19:00:00 20.3 5 Sudoeste 9 Oeste 0 -- -- 38
2019-03-24 18:00:00 22.7 7 Oeste 16 Oeste 0 -- -- 32
2019-03-24 17:00:00 23.3 7 Oeste 21 Oeste 0 -- -- 32
2019-03-24 16:00:00 22.8 10 Oeste 19 Oeste 0 -- -- 35
2019-03-24 15:00:00 22.5 8 Noroeste 19 Oeste 0 -- -- 34
2019-03-24 14:00:00 21.6 8 Oeste 15 Sudoeste 0 -- -- 37
2019-03-24 13:00:00 19.9 8 Oeste 17 Oeste 0 -- -- 38
2019-03-24 12:00:00 17.9 6 Oeste 15 Oeste 0 -- -- 44
2019-03-24 11:00:00 15.1 9 Oeste 14 Noroeste 0 -- -- 51
2019-03-24 10:00:00 12.7 6 Oeste 9 Noroeste 0 -- -- 57
2019-03-24 09:00:00 10.4 3 Oeste 5 Oeste 0 -- -- 59
2019-03-24 08:00:00 6.2 2 Norte 4 Sur 0 -- -- 76
2019-03-24 07:00:00 4.1 0 Calma 5 Sur 0 -- -- 79
2019-03-24 06:00:00 4.6 4 Sur 6 Sur 0 -- -- 77
2019-03-24 05:00:00 4.5 3 Sur 7 Sudeste 0 -- -- 76
2019-03-24 04:00:00 4.7 4 Sudeste 6 Sudeste 0 -- -- 74
2019-03-24 03:00:00 5.5 4 Sudeste 8 Sudeste 0 -- -- 70
2019-03-24 02:00:00 7 5 Sudeste 9 Sudeste 0 -- -- 64
2019-03-24 01:00:00 8.3 6 Sur 8 Sur 0 -- -- 57
2019-03-24 00:00:00 8.6 5 Sur 6 Sur 0 -- -- 60
2019-03-23 23:00:00 10 3 Sudeste 10 Norte 0 -- -- 59
2019-03-23 22:00:00 12.5 6 Sur 11 Sur 0 -- -- 49
2019-03-23 21:00:00 13.6 7 Sur 13 Sudoeste 0 -- -- 48
2019-03-23 20:00:00 15.6 8 Sudoeste 13 Sudoeste 0 -- -- 48
2019-03-23 19:00:00 18.8 2 Oeste 9 Noroeste 0 -- -- 44
2019-03-23 18:00:00 21.3 7 Noroeste 18 Oeste 0 -- -- 35
2019-03-23 17:00:00 21.9 9 Oeste 20 Oeste 0 -- -- 35
2019-03-23 16:00:00 22.1 9 Oeste 21 Oeste 0 -- -- 36
2019-03-23 15:00:00 21.6 9 Oeste 18 Oeste 0 -- -- 35
2019-03-23 14:00:00 20.3 6 Noroeste 17 Oeste 0 -- -- 39
2019-03-23 13:00:00 18.8 5 Noroeste 14 Noroeste 0 -- -- 41
2019-03-23 12:00:00 16.5 5 Noroeste 11 Noroeste 0 -- -- 48
2019-03-23 11:00:00 14.9 4 Noroeste 8 Noroeste 0 -- -- 55
2019-03-23 10:00:00 12.1 5 Oeste 9 Oeste 0 -- -- 61
2019-03-23 09:00:00 10.1 0 Calma 3 Sur 0 -- -- 64
2019-03-23 08:00:00 4.1 3 Sudeste 4 Sudeste 0 -- -- 82
2019-03-23 07:00:00 2.5 0 Calma 6 Sudeste 0 -- -- 81
2019-03-23 06:00:00 3 2 Sudeste 5 Sudoeste 0 -- -- 80
2019-03-23 05:00:00 3.9 2 Oeste 4 Noroeste 0 -- -- 80
2019-03-23 04:00:00 4.7 2 Norte 5 Sudeste 0 -- -- 74
2019-03-23 03:00:00 6.4 3 Sudeste 10 Sudeste 0 -- -- 68
2019-03-23 02:00:00 7 6 Sudeste 9 Sudeste 0 -- -- 69
2019-03-23 01:00:00 7.3 4 Sudeste 6 Sur 0 -- -- 71
2019-03-23 00:00:00 8.1 0 Calma 11 Noroeste 0 -- -- 69
2019-03-22 23:00:00 9.8 7 Noroeste 12 Noroeste 0 -- -- 62
2019-03-22 22:00:00 11.9 7 Sur 19 Sudeste 0 -- -- 52
2019-03-22 21:00:00 12 9 Sur 14 Sur 0 -- -- 53
2019-03-22 20:00:00 13.6 7 Sur 12 Sudeste 0 -- -- 53
2019-03-22 19:00:00 -- 4 Oeste 14 Oeste 0 -- -- --
2019-03-22 18:00:00 19.7 8 Oeste 15 Oeste 0 -- -- 38
2019-03-22 17:00:00 20.3 9 Oeste 15 Oeste 0 -- -- 37
2019-03-22 16:00:00 20.4 6 Oeste 15 Norte 0 -- -- 38
2019-03-22 15:00:00 19.2 4 Noroeste 13 Oeste 0 -- -- 37
2019-03-22 14:00:00 18.1 6 Noroeste 13 Noroeste 0 -- -- 38
2019-03-22 13:00:00 16.2 5 Noroeste 12 Oeste 0 -- -- 43
2019-03-22 12:00:00 14 6 Noroeste 10 Noroeste 0 -- -- 49
2019-03-22 11:00:00 11.8 4 Noroeste 8 Noroeste 0 -- -- 59
2019-03-22 10:00:00 9.1 3 Oeste 7 Oeste 0 -- -- 67
2019-03-22 09:00:00 5.3 6 Oeste 11 Oeste 0 -- -- 80
2019-03-22 08:00:00 2.5 3 Noroeste 6 Noroeste 0 -- -- 90
2019-03-22 07:00:00 0.9 0 Calma 4 Sudoeste 0 -- -- 91
2019-03-22 06:00:00 0.9 2 Sur 5 Sudeste 0 -- -- 88
2019-03-22 05:00:00 1.5 0 Calma 6 Sudeste 0 -- -- 87
2019-03-22 04:00:00 1.7 3 Sudeste 6 Sudeste 0 -- -- 85
2019-03-22 03:00:00 2.5 3 Sur 4 Sur 0 -- -- 82
2019-03-22 02:00:00 4.1 3 Sudeste 6 Sur 0 -- -- 77
2019-03-22 01:00:00 5.2 6 Sur 8 Sur 0 -- -- 76
2019-03-22 00:00:00 5.6 0 Calma 5 Nordeste 0 -- -- 76
2019-03-21 23:00:00 6.9 4 Norte 10 Sudeste 0 -- -- 71
2019-03-21 22:00:00 8.6 6 Sudeste 13 Sur 0 -- -- 65
2019-03-21 21:00:00 9.6 9 Sur 12 Sudoeste 0 -- -- 59
2019-03-21 20:00:00 10.9 4 Sur 9 Oeste 0 -- -- 48
2019-03-21 19:00:00 14.3 5 Oeste 12 Sur 0 -- -- 42
2019-03-21 18:00:00 16.7 5 Sudoeste 15 Sudeste 0 -- -- 34
2019-03-21 17:00:00 17 3 Sudoeste 10 Noroeste 0 -- -- 32
2019-03-21 16:00:00 17 6 Noroeste 13 Noroeste 0 -- -- 32
2019-03-21 15:00:00 16.4 6 Noroeste 15 Noroeste 0 -- -- 36
2019-03-21 14:00:00 15.1 6 Noroeste 14 Oeste 0 -- -- 41
2019-03-21 13:00:00 13.7 4 Noroeste 13 Noroeste 0 -- -- 49
2019-03-21 12:00:00 12 5 Noroeste 15 Noroeste 0 -- -- 58
2019-03-21 11:00:00 10 7 Oeste 14 Oeste 0 -- -- 62
2019-03-21 10:00:00 7.8 9 Oeste 16 Oeste 0 -- -- 67
2019-03-21 09:00:00 6 5 Oeste 9 Oeste 0 -- -- 73
2019-03-21 08:00:00 1.9 0 Calma 4 Sudeste 0 -- -- 91
2019-03-21 07:00:00 0 2 Sudeste 3 Sudeste 0 -- -- 87
2019-03-21 06:00:00 0.5 4 Sudeste 6 Sudoeste 0 -- -- 86
2019-03-21 05:00:00 0.8 3 Sudeste 6 Sudeste 0 -- -- 85
2019-03-21 04:00:00 1.8 3 Sudeste 7 Noroeste 0 -- -- 81
2019-03-21 03:00:00 3.6 0 Calma 9 Sur 0 -- -- 76
2019-03-21 02:00:00 4.4 4 Sur 9 Sudeste 0 -- -- 75
2019-03-21 01:00:00 5 4 Sur 6 Sur 0 -- -- 74
2019-03-21 00:00:00 6.5 2 Este 8 Norte 0 -- -- 70